Gurli — SLEG — position and weather

sailwx.info

Track history (hours):
 
Tides and Currents Weather Stations Pressure Air Temp Water Temp Dewpoint Dewpoint Depression Visibility Wind Speed Wind Dir Waves Ship Positions

Gurli

Last reported at 2016-Sep-24 22:31 UTC. Time now 2016-Sep-25 00:21 UTC.
Position N 59°20' E 018°05'.

Length 21 m.

Type: Passenger vessel. MMSI: 265687640.

Date/timePositionNaut miles runAvg speedWind from/ knotsBaromVisibWave heightAir tempDewpointWater temp
2016-Sep-24 22:31N 59°20' E 018°05'0 0.0
2016-Sep-24 21:31N 59°20' E 018°05'0 0.0
2016-Sep-24 19:31N 59°20' E 018°05'0 0.0
2016-Sep-24 18:31N 59°20' E 018°05'0 0.1
2016-Sep-24 17:33N 59°20' E 018°05'2 2.3
2016-Sep-24 16:32N 59°20' E 018°09'0 0.0
2016-Sep-24 14:33N 59°20' E 018°09'0 0.1
2016-Sep-24 12:33N 59°20' E 018°09'2 0.9
2016-Sep-24 10:33N 59°19' E 018°07'1 0.8
2016-Sep-24 09:33N 59°19' E 018°08'2 0.3
2016-Sep-24 03:32N 59°20' E 018°05'0 0.0
2016-Sep-24 02:32N 59°20' E 018°05'0 0.0
2016-Sep-24 01:32N 59°20' E 018°05'0 0.0
2016-Sep-24 00:32N 59°20' E 018°05'0 0.0
2016-Sep-23 19:32N 59°20' E 018°05'0 0.0
2016-Sep-23 17:32N 59°20' E 018°05'2 1.8
2016-Sep-23 16:33N 59°19' E 018°08'0 0.0
2016-Sep-23 15:33N 59°19' E 018°08'1 0.4
2016-Sep-23 13:33N 59°19' E 018°06'0 0.0
2016-Sep-23 09:33N 59°19' E 018°07'2 0.5
2016-Sep-23 06:33N 59°19' E 018°09'1 0.7
2016-Sep-23 04:33N 59°19' E 018°07'1 1.2
2016-Sep-23 03:32N 59°20' E 018°05'0 0.0
2016-Sep-23 02:32N 59°20' E 018°05'0 0.0
2016-Sep-23 01:32N 59°20' E 018°05'0 0.0
2016-Sep-23 00:32N 59°20' E 018°05'0 0.0
2016-Sep-22 23:32N 59°20' E 018°05'0 0.0
2016-Sep-22 20:32N 59°20' E 018°05'2 0.3
2016-Sep-22 12:23N 59°20' E 018°09'2 0.2
2016-Sep-22 04:33N 59°19' E 018°07'1 1.2
2016-Sep-22 03:31N 59°20' E 018°05'0 0.0
2016-Sep-22 00:31N 59°20' E 018°05'0 0.0
2016-Sep-21 23:31N 59°20' E 018°05'0 0.0
2016-Sep-21 22:31N 59°20' E 018°05'0 0.0
2016-Sep-21 19:31N 59°20' E 018°05'2 0.8
2016-Sep-21 16:33N 59°19' E 018°09'1 0.2
2016-Sep-21 09:33N 59°19' E 018°07'2 1.5
2016-Sep-21 08:33N 59°19' E 018°10'1 0.5
2016-Sep-21 05:33N 59°19' E 018°07'1 0.6
2016-Sep-21 03:33N 59°20' E 018°05'0 0.0
2016-Sep-21 02:33N 59°20' E 018°05'0 0.0
2016-Sep-20 17:33N 59°20' E 018°05'2 0.8
2016-Sep-20 14:32N 59°20' E 018°09'2 1.9
2016-Sep-20 13:33N 59°19' E 018°06'2 0.6
2016-Sep-20 10:33N 59°19' E 018°09'0 0.0
2016-Sep-20 08:33N 59°19' E 018°09'1 1.3
2016-Sep-20 07:33N 59°19' E 018°07'2 1.6
2016-Sep-20 06:32N 59°20' E 018°09'2 0.6
2016-Sep-20 02:33N 59°20' E 018°05'0 0.0
2016-Sep-19 23:33N 59°20' E 018°05'0 0.0
2016-Sep-19 19:33N 59°20' E 018°05'0 0.0
2016-Sep-19 18:33N 59°20' E 018°05'2 0.9
2016-Sep-19 16:33N 59°19' E 018°08'1 0.4
2016-Sep-19 14:33N 59°19' E 018°10'2 1.9
2016-Sep-19 13:33N 59°19' E 018°06'2 1.9
2016-Sep-19 12:33N 59°19' E 018°10'2 1.5
2016-Sep-19 11:33N 59°19' E 018°07'0 0.0
2016-Sep-19 09:33N 59°19' E 018°07'0 0.0
2016-Sep-19 07:33N 59°19' E 018°07'2 1.6
2016-Sep-19 06:33N 59°20' E 018°09'2 0.8
2016-Sep-19 03:31N 59°20' E 018°05'0 0.0
2016-Sep-19 02:31N 59°20' E 018°05'0 0.0
2016-Sep-19 00:31N 59°20' E 018°05'0 0.0
2016-Sep-18 19:31N 59°20' E 018°05'0 0.0
2016-Sep-18 15:22N 59°20' E 018°05'0 0.0
2016-Sep-18 14:31N 59°20' E 018°05'0 0.0
2016-Sep-18 10:31N 59°20' E 018°05'0 0.0
2016-Sep-18 09:31N 59°20' E 018°05'0 0.0
2016-Sep-18 02:31N 59°20' E 018°05'0 0.0
2016-Sep-18 01:31N 59°20' E 018°05'0 0.0
2016-Sep-18 00:31N 59°20' E 018°05'0 0.0
2016-Sep-17 22:31N 59°20' E 018°05'0 0.0
2016-Sep-17 21:31N 59°20' E 018°05'0 0.0
2016-Sep-17 20:31N 59°20' E 018°05'0 0.0
2016-Sep-17 19:16N 59°20' E 018°05'0 0.0
2016-Sep-17 13:28N 59°20' E 018°05'0 0.0
2016-Sep-17 12:31N 59°20' E 018°05'0 0.0
2016-Sep-17 10:31N 59°20' E 018°05'0 0.0
2016-Sep-17 09:31N 59°20' E 018°05'0 0.0
2016-Sep-17 08:31N 59°20' E 018°05'0 0.0
2016-Sep-17 07:31N 59°20' E 018°05'0 0.0
2016-Sep-17 05:31N 59°20' E 018°05'0 0.0
2016-Sep-17 04:31N 59°20' E 018°05'0 0.0
2016-Sep-17 00:31N 59°20' E 018°05'0 0.0
2016-Sep-16 17:13N 59°20' E 018°05'2 0.9
2016-Sep-16 15:33N 59°19' E 018°07'1 0.4
2016-Sep-16 12:32N 59°19' E 018°10'2 0.5
2016-Sep-16 09:34N 59°19' E 018°07'0 0.1
2016-Sep-16 07:33N 59°19' E 018°06'1 0.3
2016-Sep-16 03:32N 59°20' E 018°05'0 0.0
2016-Sep-16 02:32N 59°20' E 018°05'0 0.0
2016-Sep-16 00:32N 59°20' E 018°05'0 0.0
2016-Sep-15 22:32N 59°20' E 018°05'0 0.0
2016-Sep-15 21:32N 59°20' E 018°05'0 0.0
2016-Sep-15 20:32N 59°20' E 018°05'0 0.0
2016-Sep-15 18:32N 59°20' E 018°05'2 0.4
2016-Sep-15 12:33N 59°19' E 018°09'1 1.2
2016-Sep-15 11:33N 59°19' E 018°07'0 0.0
2016-Sep-15 04:33N 59°19' E 018°07'1 1.2
2016-Sep-15 03:33N 59°20' E 018°05'0 0.0
2016-Sep-15 01:33N 59°20' E 018°05'0 0.0
2016-Sep-14 22:33N 59°20' E 018°05'  
Track history (hours):
 
Tides and Currents Weather Stations Pressure Air Temp Water Temp Dewpoint Dewpoint Depression Visibility Wind Speed Wind Dir Waves Ship Positions

Gurli

Last reported at 2016-Sep-24 22:31 UTC. Time now 2016-Sep-25 00:21 UTC.
Position N 59°20' E 018°05'.

Length 21 m.

Type: Passenger vessel. MMSI: 265687640.

Date/timePositionNaut miles runAvg speedWind from/ knotsBaromVisibWave heightAir tempDewpointWater temp
2016-Sep-24 22:31N 59°20' E 018°05'0 0.0
2016-Sep-24 21:31N 59°20' E 018°05'0 0.0
2016-Sep-24 19:31N 59°20' E 018°05'0 0.0
2016-Sep-24 18:31N 59°20' E 018°05'0 0.1
2016-Sep-24 17:33N 59°20' E 018°05'2 2.3
2016-Sep-24 16:32N 59°20' E 018°09'0 0.0
2016-Sep-24 14:33N 59°20' E 018°09'0 0.1
2016-Sep-24 12:33N 59°20' E 018°09'2 0.9
2016-Sep-24 10:33N 59°19' E 018°07'1 0.8
2016-Sep-24 09:33N 59°19' E 018°08'2 0.3
2016-Sep-24 03:32N 59°20' E 018°05'0 0.0
2016-Sep-24 02:32N 59°20' E 018°05'0 0.0
2016-Sep-24 01:32N 59°20' E 018°05'0 0.0
2016-Sep-24 00:32N 59°20' E 018°05'0 0.0
2016-Sep-23 19:32N 59°20' E 018°05'0 0.0
2016-Sep-23 17:32N 59°20' E 018°05'2 1.8
2016-Sep-23 16:33N 59°19' E 018°08'0 0.0
2016-Sep-23 15:33N 59°19' E 018°08'1 0.4
2016-Sep-23 13:33N 59°19' E 018°06'0 0.0
2016-Sep-23 09:33N 59°19' E 018°07'2 0.5
2016-Sep-23 06:33N 59°19' E 018°09'1 0.7
2016-Sep-23 04:33N 59°19' E 018°07'1 1.2
2016-Sep-23 03:32N 59°20' E 018°05'0 0.0
2016-Sep-23 02:32N 59°20' E 018°05'0 0.0
2016-Sep-23 01:32N 59°20' E 018°05'0 0.0
2016-Sep-23 00:32N 59°20' E 018°05'0 0.0
2016-Sep-22 23:32N 59°20' E 018°05'0 0.0
2016-Sep-22 20:32N 59°20' E 018°05'2 0.3
2016-Sep-22 12:23N 59°20' E 018°09'2 0.2
2016-Sep-22 04:33N 59°19' E 018°07'1 1.2
2016-Sep-22 03:31N 59°20' E 018°05'0 0.0
2016-Sep-22 00:31N 59°20' E 018°05'0 0.0
2016-Sep-21 23:31N 59°20' E 018°05'0 0.0
2016-Sep-21 22:31N 59°20' E 018°05'0 0.0
2016-Sep-21 19:31N 59°20' E 018°05'2 0.8
2016-Sep-21 16:33N 59°19' E 018°09'1 0.2
2016-Sep-21 09:33N 59°19' E 018°07'2 1.5
2016-Sep-21 08:33N 59°19' E 018°10'1 0.5
2016-Sep-21 05:33N 59°19' E 018°07'1 0.6
2016-Sep-21 03:33N 59°20' E 018°05'0 0.0
2016-Sep-21 02:33N 59°20' E 018°05'0 0.0
2016-Sep-20 17:33N 59°20' E 018°05'2 0.8
2016-Sep-20 14:32N 59°20' E 018°09'2 1.9
2016-Sep-20 13:33N 59°19' E 018°06'2 0.6
2016-Sep-20 10:33N 59°19' E 018°09'0 0.0
2016-Sep-20 08:33N 59°19' E 018°09'1 1.3
2016-Sep-20 07:33N 59°19' E 018°07'2 1.6
2016-Sep-20 06:32N 59°20' E 018°09'2 0.6
2016-Sep-20 02:33N 59°20' E 018°05'0 0.0
2016-Sep-19 23:33N 59°20' E 018°05'0 0.0
2016-Sep-19 19:33N 59°20' E 018°05'0 0.0
2016-Sep-19 18:33N 59°20' E 018°05'2 0.9
2016-Sep-19 16:33N 59°19' E 018°08'1 0.4
2016-Sep-19 14:33N 59°19' E 018°10'2 1.9
2016-Sep-19 13:33N 59°19' E 018°06'2 1.9
2016-Sep-19 12:33N 59°19' E 018°10'2 1.5
2016-Sep-19 11:33N 59°19' E 018°07'0 0.0
2016-Sep-19 09:33N 59°19' E 018°07'0 0.0
2016-Sep-19 07:33N 59°19' E 018°07'2 1.6
2016-Sep-19 06:33N 59°20' E 018°09'2 0.8
2016-Sep-19 03:31N 59°20' E 018°05'0 0.0
2016-Sep-19 02:31N 59°20' E 018°05'0 0.0
2016-Sep-19 00:31N 59°20' E 018°05'0 0.0
2016-Sep-18 19:31N 59°20' E 018°05'0 0.0
2016-Sep-18 15:22N 59°20' E 018°05'0 0.0
2016-Sep-18 14:31N 59°20' E 018°05'0 0.0
2016-Sep-18 10:31N 59°20' E 018°05'0 0.0
2016-Sep-18 09:31N 59°20' E 018°05'0 0.0
2016-Sep-18 02:31N 59°20' E 018°05'0 0.0
2016-Sep-18 01:31N 59°20' E 018°05'0 0.0
2016-Sep-18 00:31N 59°20' E 018°05'0 0.0
2016-Sep-17 22:31N 59°20' E 018°05'0 0.0
2016-Sep-17 21:31N 59°20' E 018°05'0 0.0
2016-Sep-17 20:31N 59°20' E 018°05'0 0.0
2016-Sep-17 19:16N 59°20' E 018°05'0 0.0
2016-Sep-17 13:28N 59°20' E 018°05'0 0.0
2016-Sep-17 12:31N 59°20' E 018°05'0 0.0
2016-Sep-17 10:31N 59°20' E 018°05'0 0.0
2016-Sep-17 09:31N 59°20' E 018°05'0 0.0
2016-Sep-17 08:31N 59°20' E 018°05'0 0.0
2016-Sep-17 07:31N 59°20' E 018°05'0 0.0
2016-Sep-17 05:31N 59°20' E 018°05'0 0.0
2016-Sep-17 04:31N 59°20' E 018°05'0 0.0
2016-Sep-17 00:31N 59°20' E 018°05'0 0.0
2016-Sep-16 17:13N 59°20' E 018°05'2 0.9
2016-Sep-16 15:33N 59°19' E 018°07'1 0.4
2016-Sep-16 12:32N 59°19' E 018°10'2 0.5
2016-Sep-16 09:34N 59°19' E 018°07'0 0.1
2016-Sep-16 07:33N 59°19' E 018°06'1 0.3
2016-Sep-16 03:32N 59°20' E 018°05'0 0.0
2016-Sep-16 02:32N 59°20' E 018°05'0 0.0
2016-Sep-16 00:32N 59°20' E 018°05'0 0.0
2016-Sep-15 22:32N 59°20' E 018°05'0 0.0
2016-Sep-15 21:32N 59°20' E 018°05'0 0.0
2016-Sep-15 20:32N 59°20' E 018°05'0 0.0
2016-Sep-15 18:32N 59°20' E 018°05'2 0.4
2016-Sep-15 12:33N 59°19' E 018°09'1 1.2
2016-Sep-15 11:33N 59°19' E 018°07'0 0.0
2016-Sep-15 04:33N 59°19' E 018°07'1 1.2
2016-Sep-15 03:33N 59°20' E 018°05'0 0.0
2016-Sep-15 01:33N 59°20' E 018°05'0 0.0
2016-Sep-14 22:33N 59°20' E 018°05'  

Dump ship's entire track history